Terminal Aerodrome Forecast
Issued by NWS Cleveland, OH

Home | Current Version | Previous Version | Text Only | Print | Product List | Glossary Off
Versions: 1 2 3 4 5 6 7 8 9 10 11 12 13 14 15 16 17 18 19 20 21

000
FTUS41 KCLE 300500
TAFCAK
TAF
KCAK 300520Z 3006/3106 16007KT P6SM BKN250
     FM301500 20012G18KT P6SM SCT060 BKN120
     FM310000 21007KT P6SM OVC100=

USA.gov is the U.S. government's official web portal to all federal, state and local government web resources and services.